Aberdeen, New Jersey
Current Conditions -  °F | °C
As of 11:55 AM on Thursday 23 Oct 2014 (Local Time) from KLDJ Reporting Station
Light Rain Light Rain  
Wind Chill: 57°   Ceiling: 3400
Heat Index: 57°   Visibility: 5mi
Dew Point: 53°   Wind: 7mph
Humidity: 87%   Direction: 360°N
Pressure: 29.75"   Gusts: NA
Location:  40.4118°N, 74.2499°W
Report Text: KLDJ 231555Z AUTO 36006KT 5SM -RA SCT020 SCT026 OVC034 14/12 A2975 RMK AO2 P0005 T01380117
Loading
Personal Weather Stations






























Interactive Weather Map New forecast layout! Learn more

10-Day Weather Forecast

Advertisements
Track Severe Weather on mobile